createdAt,value
2022-10-21T00:00:37.638Z,57.7
2022-10-21T00:06:20.372Z,59
2022-10-21T00:11:59.179Z,59.8
2022-10-21T00:17:35.077Z,60.1
2022-10-21T00:23:19.427Z,59.6
2022-10-21T00:28:55.931Z,59.1
2022-10-21T00:34:31.898Z,58.4
2022-10-21T00:40:11.132Z,58.7
2022-10-21T00:45:48.600Z,59.5
2022-10-21T00:51:23.750Z,60
2022-10-21T00:56:58.751Z,60
2022-10-21T01:02:39.143Z,59.4
2022-10-21T01:08:14.036Z,59.7
2022-10-21T01:13:48.978Z,60
2022-10-21T01:19:23.987Z,60.2
2022-10-21T01:24:58.792Z,59.8
2022-10-21T01:30:34.622Z,59.9
2022-10-21T01:36:17.359Z,60
2022-10-21T01:41:53.210Z,60.4
2022-10-21T01:47:48.059Z,61.1
2022-10-21T01:53:33.655Z,61.2
2022-10-21T01:59:08.345Z,61.5
2022-10-21T02:04:43.336Z,61.3
2022-10-21T02:10:27.541Z,60.8
2022-10-21T02:16:04.692Z,60.4
2022-10-21T02:21:52.630Z,60.1
2022-10-21T02:27:28.583Z,59.9
2022-10-21T02:33:17.182Z,60.5
2022-10-21T02:38:59.808Z,60.5
2022-10-21T02:44:56.003Z,60.7
2022-10-21T02:50:30.707Z,61.4
2022-10-21T02:58:30.201Z,61.1
2022-10-21T03:04:06.042Z,60.7
2022-10-21T03:10:26.003Z,61.2
2022-10-21T03:16:00.931Z,61.6
2022-10-21T03:21:42.007Z,61.8
2022-10-21T03:27:16.915Z,61.7
2022-10-21T03:32:57.126Z,61.1
2022-10-21T03:38:48.350Z,60.2
2022-10-21T03:44:32.301Z,60.3
2022-10-21T03:50:13.939Z,60.6
2022-10-21T03:56:01.472Z,60.5
2022-10-21T04:01:53.593Z,61.3
2022-10-21T04:07:30.059Z,61.6
2022-10-21T04:13:13.259Z,61
2022-10-21T04:18:49.215Z,60.6
2022-10-21T04:24:25.106Z,60.8
2022-10-21T04:30:10.144Z,60
2022-10-21T04:35:45.069Z,60.9
2022-10-21T04:41:28.823Z,61.7
2022-10-21T04:47:10.688Z,62.1
2022-10-21T04:52:49.774Z,61.7
2022-10-21T04:58:31.403Z,61.3
2022-10-21T05:04:29.614Z,61
2022-10-21T05:10:13.662Z,60.4
2022-10-21T05:15:54.161Z,61.4
2022-10-21T05:27:14.120Z,62.8
2022-10-21T05:32:49.358Z,63.1
2022-10-21T05:38:25.266Z,63.5
2022-10-21T05:44:00.494Z,64.1
2022-10-21T05:49:53.885Z,64.3
2022-10-21T05:55:32.997Z,64.1
2022-10-21T06:01:09.303Z,63.4
2022-10-21T06:06:46.613Z,63.9
2022-10-21T06:12:50.509Z,64.5
2022-10-21T06:18:25.736Z,64.9
2022-10-21T06:24:27.896Z,65.2
2022-10-21T06:30:31.639Z,64.8
2022-10-21T06:36:06.420Z,66.5
2022-10-21T06:41:41.255Z,64.2
2022-10-21T06:47:16.185Z,63.7
2022-10-21T06:52:52.040Z,64.3
2022-10-21T06:58:27.247Z,60.2
2022-10-21T07:04:02.252Z,67.8
2022-10-21T07:09:37.529Z,67.7
2022-10-21T07:15:22.663Z,65.8
2022-10-21T07:20:57.824Z,61.2
2022-10-21T07:26:33.922Z,63.1
2022-10-21T07:32:09.274Z,63.5
2022-10-21T07:37:49.747Z,59.5
2022-10-21T07:43:27.445Z,60
2022-10-21T07:49:02.267Z,57.8
2022-10-21T07:54:46.928Z,58.4
2022-10-21T08:00:30.780Z,60.8
2022-10-21T08:06:05.736Z,60.1
2022-10-21T08:11:55.704Z,59.5
2022-10-21T08:17:30.724Z,59.4
2022-10-21T08:23:05.518Z,62.8
2022-10-21T08:28:49.373Z,61.4
2022-10-21T08:34:25.598Z,63.6
2022-10-21T08:40:00.336Z,65.6
2022-10-21T08:45:35.420Z,67.8
2022-10-21T08:51:11.369Z,67.6
2022-10-21T08:56:55.234Z,68.9
2022-10-21T09:02:33.580Z,69.5
2022-10-21T09:08:17.929Z,69.7
2022-10-21T09:14:46.071Z,66.7
2022-10-21T09:20:29.350Z,71.1
2022-10-21T09:26:13.381Z,70.5
2022-10-21T09:32:02.183Z,70.6
2022-10-21T09:37:38.961Z,71.3
2022-10-21T09:43:16.515Z,71.9
2022-10-21T09:50:05.596Z,72.3
2022-10-21T09:55:46.535Z,74.1
2022-10-21T10:01:33.580Z,73.9
2022-10-21T10:07:12.552Z,74.2
2022-10-21T10:12:47.369Z,72
2022-10-21T10:18:22.479Z,72.8
2022-10-21T10:24:27.154Z,73.8
2022-10-21T10:30:27.400Z,72.7
2022-10-21T10:36:09.264Z,74.4
2022-10-21T10:41:53.833Z,73.8
2022-10-21T10:47:33.154Z,73.1
2022-10-21T10:53:08.807Z,73.4
2022-10-21T10:58:47.896Z,70.4
2022-10-21T11:04:30.309Z,69.2
2022-10-21T11:10:10.110Z,67
2022-10-21T11:15:57.618Z,66.2
2022-10-21T11:21:52.038Z,66.3
2022-10-21T11:27:29.469Z,65.9
2022-10-21T11:33:12.696Z,63.5
2022-10-21T11:38:47.972Z,61.9
2022-10-21T11:44:30.189Z,63.1
2022-10-21T11:50:10.530Z,68.6
2022-10-21T11:55:46.666Z,66.5
2022-10-21T12:01:21.983Z,72.7
2022-10-21T12:06:57.118Z,73.5
2022-10-21T12:12:32.765Z,74.6
2022-10-21T12:18:07.899Z,73.6
2022-10-21T12:23:59.934Z,69.1
2022-10-21T12:29:43.429Z,65.4
2022-10-21T12:35:18.980Z,64.1
2022-10-21T12:40:54.164Z,61.6
2022-10-21T12:46:40.423Z,59.7
2022-10-21T12:52:15.541Z,58.5
2022-10-21T12:59:21.621Z,57.4
2022-10-21T13:05:10.124Z,60.2
2022-10-21T13:10:53.793Z,60.4
2022-10-21T13:16:28.509Z,58.2
2022-10-21T13:22:40.766Z,58.8
2022-10-21T13:28:20.086Z,61.3
2022-10-21T13:34:05.490Z,60
2022-10-21T13:39:41.904Z,63.9
2022-10-21T13:45:39.001Z,61.6
2022-10-21T13:51:17.699Z,65.3
2022-10-21T13:57:13.787Z,62.3
2022-10-21T14:02:48.807Z,67.1
2022-10-21T14:08:33.091Z,66.1
2022-10-21T14:15:08.810Z,64.4
2022-10-21T14:20:54.062Z,62.8
2022-10-21T14:26:49.221Z,64
2022-10-21T14:32:27.577Z,64.6
2022-10-21T14:38:02.785Z,64.9
2022-10-21T14:43:44.344Z,64.8
2022-10-21T14:49:29.053Z,63.7
2022-10-21T14:55:10.272Z,65.1
2022-10-21T15:00:45.949Z,65.1
2022-10-21T15:06:53.724Z,66.6
2022-10-21T15:12:29.015Z,63.6
2022-10-21T15:18:17.946Z,64.7
2022-10-21T15:23:55.855Z,65.5
2022-10-21T15:29:31.025Z,67.5
2022-10-21T15:35:05.865Z,67
2022-10-21T15:40:40.413Z,68.3
2022-10-21T15:46:20.134Z,68.5
2022-10-21T15:52:04.594Z,65.6
2022-10-21T15:57:40.198Z,63.5
2022-10-21T16:03:17.070Z,64.8
2022-10-21T16:08:55.720Z,63.8
2022-10-21T16:14:31.791Z,62.6
2022-10-21T16:20:11.541Z,62.5
2022-10-21T16:25:46.758Z,62.8
2022-10-21T16:33:31.522Z,62
2022-10-21T16:39:08.437Z,62.9
2022-10-21T16:44:44.680Z,63.9
2022-10-21T16:50:19.705Z,66.3
2022-10-21T16:55:55.080Z,73.3
2022-10-21T17:01:38.249Z,78.2
2022-10-21T17:07:15.336Z,77.2
2022-10-21T17:12:52.607Z,78.3
2022-10-21T17:18:33.804Z,78.6
2022-10-21T17:24:13.366Z,77.8
2022-10-21T17:29:50.570Z,77.3
2022-10-21T17:35:26.154Z,73.4
2022-10-21T17:41:05.387Z,74.4
2022-10-21T17:46:43.956Z,75.9
2022-10-21T17:52:25.386Z,73.5
2022-10-21T17:58:02.524Z,71.9
2022-10-21T18:03:39.621Z,74
2022-10-21T18:09:14.805Z,75.5
2022-10-21T18:14:58.197Z,79.3
2022-10-21T18:20:36.194Z,76.9
2022-10-21T18:26:15.270Z,74.1
2022-10-21T18:31:50.246Z,74.4
2022-10-21T18:37:49.413Z,73.1
2022-10-21T18:43:29.655Z,70.7
2022-10-21T18:49:04.595Z,71
2022-10-21T18:54:41.950Z,71.2
2022-10-21T19:00:25.367Z,73.2
2022-10-21T19:06:10.959Z,71.8
2022-10-21T19:11:46.274Z,72
2022-10-21T19:17:24.062Z,71.3
2022-10-21T19:23:04.602Z,70.7
2022-10-21T19:28:49.271Z,70.7
2022-10-21T19:34:41.253Z,70.5
2022-10-21T19:40:21.815Z,72.6
2022-10-21T19:45:56.764Z,70.1
2022-10-21T19:51:32.638Z,72.8
2022-10-21T19:57:13.437Z,72.4
2022-10-21T20:02:58.219Z,71.4
2022-10-21T20:08:37.819Z,72.2
2022-10-21T20:14:13.888Z,71.3
2022-10-21T20:19:49.914Z,70.9
2022-10-21T20:25:29.617Z,71.7
2022-10-21T20:31:04.467Z,60.4
2022-10-21T20:36:56.751Z,68.2
2022-10-21T20:42:38.507Z,71.1
2022-10-21T20:48:23.468Z,69.3
2022-10-21T20:53:58.370Z,68.7
2022-10-21T20:59:33.284Z,69.3
2022-10-21T21:05:09.275Z,69.5
2022-10-21T21:10:44.391Z,70.3
2022-10-21T21:16:20.180Z,70.9
2022-10-21T21:21:55.064Z,71.3
2022-10-21T21:27:30.778Z,71.1
2022-10-21T21:33:06.765Z,70.6
2022-10-21T21:38:41.727Z,70.1
2022-10-21T21:44:16.678Z,69.5
2022-10-21T21:49:51.835Z,69.3
2022-10-21T21:55:26.901Z,69.2
2022-10-21T22:01:02.489Z,69.9
2022-10-21T22:06:39.071Z,70.5
2022-10-21T22:12:16.305Z,71
2022-10-21T22:17:57.948Z,70.6
2022-10-21T22:23:32.761Z,70.1
2022-10-21T22:29:08.659Z,69.7
2022-10-21T22:34:43.488Z,69.2
2022-10-21T22:40:18.575Z,68.1
2022-10-21T22:46:01.307Z,67.4
2022-10-21T22:52:10.424Z,68.3
2022-10-21T22:57:45.274Z,69.4
2022-10-21T23:03:23.529Z,69.8
2022-10-21T23:08:58.743Z,70.6
2022-10-21T23:14:34.520Z,70.6
2022-10-21T23:20:09.369Z,70.2
2022-10-21T23:25:44.451Z,70.2
2022-10-21T23:31:27.299Z,70.1
2022-10-21T23:37:02.056Z,69.3
2022-10-21T23:42:42.913Z,68.6
2022-10-21T23:48:18.147Z,68.4
2022-10-21T23:53:53.082Z,68.5
2022-10-21T23:59:29.914Z,68.6
